首页
METAR-TAF:

METAR-TAF

机场 :

圣莫里茨, 瑞士

纬度: 46-32-03N, 经度: 9-53-03E, 海拔: 1707米

当前天气观测

该预报发布于35分钟前的12:20 UTC
风速15节,风向西南
温度 9°C
湿度 57%
气压 1023 hPa
能见度10公里或以上
1500米以下无云,无积雨云

METAR: LSZS 211220Z 23015KT CAVOK 09/01 Q1023 RMK N TL170

时间: 14:55 (12:55 UTC)

预报

该预报发布于1小时和30分钟前的11:25 UTC
预报有效从21日的 12点(UTC)到 21日的 21点(UTC)
风速10节,风向南转西南
能见度10公里或以上
1500米以下无云,无积雨云
短暂存在
从 21日的 12点(UTC)到 21日的 16点(UTC)
风速15节,风向南转西南,有时为25节阵风
成为
从 21日的 17点(UTC)到 21日的 19点(UTC)
风速3节,风向多变

TAF: LSZS 211125Z 2112/2121 21010KT CAVOK TX12/2114Z TEMPO 2112/2116 21015G25KT BECMG 2117/2119 VRB03KT

超过4000个机场的气象观测和天气预报(METAR&TAF报告)。

可查询的气象台以黄色和红色小点在地图上表示。

将鼠标移到小点上方,可查看气象台名称。

然后点击查看天气观测和预报。

如需切换地图:点击带黑十字的绿色按钮放大地图;点击带横线的绿色按钮缩小地图;或者点击绿色箭头查看邻近地区的地图。


METAR-TAF: